createdAt,value
2022-12-14T00:01:38.648Z,-3.60
2022-12-14T00:04:05.467Z,-3.60
2022-12-14T00:06:33.101Z,-3.60
2022-12-14T00:09:02.296Z,-3.50
2022-12-14T00:11:36.184Z,-3.60
2022-12-14T00:14:04.463Z,-3.60
2022-12-14T00:16:33.462Z,-3.50
2022-12-14T00:19:01.604Z,-3.50
2022-12-14T00:21:28.782Z,-3.50
2022-12-14T00:23:57.540Z,-3.50
2022-12-14T00:26:26.496Z,-3.50
2022-12-14T00:28:55.044Z,-3.50
2022-12-14T00:31:23.566Z,-3.50
2022-12-14T00:33:50.509Z,-3.50
2022-12-14T00:36:20.600Z,-3.50
2022-12-14T00:38:47.561Z,-3.50
2022-12-14T00:41:20.212Z,-3.50
2022-12-14T00:43:49.539Z,-3.50
2022-12-14T00:46:17.142Z,-3.50
2022-12-14T00:48:44.218Z,-3.50
2022-12-14T00:51:14.941Z,-3.50
2022-12-14T00:53:45.608Z,-3.50
2022-12-14T00:56:12.714Z,-3.50
2022-12-14T00:59:05.889Z,-3.50
2022-12-14T01:01:32.708Z,-3.50
2022-12-14T01:04:17.142Z,-3.60
2022-12-14T01:06:51.597Z,-3.60
2022-12-14T01:09:20.399Z,-3.50
2022-12-14T01:11:47.297Z,-3.60
2022-12-14T01:14:19.256Z,-3.50
2022-12-14T01:16:46.298Z,-3.50
2022-12-14T01:19:14.350Z,-3.50
2022-12-14T01:21:41.712Z,-3.50
2022-12-14T01:24:13.271Z,-3.50
2022-12-14T01:26:40.825Z,-3.50
2022-12-14T01:29:07.889Z,-3.50
2022-12-14T01:31:36.597Z,-3.50
2022-12-14T01:34:03.825Z,-3.60
2022-12-14T01:36:34.670Z,-3.60
2022-12-14T01:39:15.749Z,-3.60
2022-12-14T01:41:52.112Z,-3.50
2022-12-14T01:44:21.055Z,-3.50
2022-12-14T01:46:53.587Z,-3.50
2022-12-14T01:49:40.071Z,-3.50
2022-12-14T01:52:21.648Z,-3.50
2022-12-14T01:54:59.975Z,-3.50
2022-12-14T01:57:44.925Z,-3.40
2022-12-14T02:00:13.934Z,-3.40
2022-12-14T02:02:50.682Z,-3.40
2022-12-14T02:05:20.754Z,-3.40
2022-12-14T02:07:51.494Z,-3.40
2022-12-14T02:10:18.376Z,-3.40
2022-12-14T02:13:10.625Z,-3.40
2022-12-14T02:15:38.767Z,-3.40
2022-12-14T02:18:08.921Z,-3.30
2022-12-14T02:20:58.877Z,-3.30
2022-12-14T02:23:52.333Z,-3.30
2022-12-14T02:26:49.799Z,-3.30
2022-12-14T02:29:41.222Z,-3.30
2022-12-14T02:32:38.680Z,-3.20
2022-12-14T02:35:31.076Z,-3.20
2022-12-14T02:38:39.998Z,-3.20
2022-12-14T02:41:40.235Z,-3.20
2022-12-14T02:44:31.788Z,-3.30
2022-12-14T02:47:08.185Z,-3.30
2022-12-14T02:49:59.753Z,-3.20
2022-12-14T02:52:44.373Z,-3.20
2022-12-14T02:55:35.692Z,-3.20
2022-12-14T02:58:07.118Z,-3.20
2022-12-14T03:00:37.088Z,-3.20
2022-12-14T03:03:07.363Z,-3.20
2022-12-14T03:05:34.451Z,-3.20
2022-12-14T03:08:09.643Z,-3.10
2022-12-14T03:10:45.909Z,-3.10
2022-12-14T03:13:29.516Z,-3.10
2022-12-14T03:16:02.733Z,-3.10
2022-12-14T03:18:36.543Z,-3.10
2022-12-14T03:21:10.622Z,-3.10
2022-12-14T03:23:41.043Z,-3.10
2022-12-14T03:26:23.562Z,-3.10
2022-12-14T03:28:55.220Z,-3.10
2022-12-14T03:31:33.075Z,-3.10
2022-12-14T03:34:03.481Z,-3.10
2022-12-14T03:36:42.562Z,-3.20
2022-12-14T03:39:12.361Z,-3.20
2022-12-14T03:41:52.013Z,-3.30
2022-12-14T03:44:49.034Z,-3.30
2022-12-14T03:47:37.644Z,-3.40
2022-12-14T03:50:17.704Z,-3.40
2022-12-14T03:52:47.118Z,-3.50
2022-12-14T03:55:30.014Z,-3.50
2022-12-14T03:58:05.838Z,-3.50
2022-12-14T04:00:52.189Z,-3.40
2022-12-14T04:03:24.904Z,-3.40
2022-12-14T04:06:18.314Z,-3.30
2022-12-14T04:09:03.552Z,-3.30
2022-12-14T04:11:55.009Z,-3.30
2022-12-14T04:14:49.322Z,-3.30
2022-12-14T04:17:38.423Z,-3.40
2022-12-14T04:20:40.621Z,-3.30
2022-12-14T04:23:12.645Z,-3.30
2022-12-14T04:26:04.542Z,-3.20
2022-12-14T04:29:19.948Z,-3.20
2022-12-14T04:31:53.473Z,-3.20
2022-12-14T04:34:25.740Z,-3.20
2022-12-14T04:36:57.006Z,-3.20
2022-12-14T04:39:33.731Z,-3.20
2022-12-14T04:42:02.595Z,-3.20
2022-12-14T04:44:34.517Z,-3.20
2022-12-14T04:47:02.716Z,-3.10
2022-12-14T04:49:39.203Z,-3.10
2022-12-14T04:52:14.765Z,-3.10
2022-12-14T04:55:16.432Z,-3.10
2022-12-14T04:57:50.231Z,-3.10
2022-12-14T05:00:17.286Z,-3.10
2022-12-14T05:02:52.776Z,-3.10
2022-12-14T05:06:03.039Z,-3.10
2022-12-14T05:08:56.937Z,-3.10
2022-12-14T05:11:54.104Z,-3.10
2022-12-14T05:14:33.559Z,-3.10
2022-12-14T05:17:08.528Z,-3.10
2022-12-14T05:19:44.257Z,-3.10
2022-12-14T05:22:17.070Z,-3.10
2022-12-14T05:24:44.081Z,-3.10
2022-12-14T05:27:10.767Z,-3.00
2022-12-14T05:29:37.462Z,-3.00
2022-12-14T05:32:04.668Z,-3.00
2022-12-14T05:34:31.618Z,-3.00
2022-12-14T05:36:58.452Z,-3.00
2022-12-14T05:39:25.377Z,-3.10
2022-12-14T05:41:53.442Z,-3.00
2022-12-14T05:44:21.741Z,-3.00
2022-12-14T05:46:48.852Z,-3.00
2022-12-14T05:49:15.888Z,-3.00
2022-12-14T05:51:42.621Z,-3.00
2022-12-14T05:54:09.579Z,-3.00
2022-12-14T05:56:36.310Z,-3.00
2022-12-14T05:59:03.088Z,-3.00
2022-12-14T06:01:29.923Z,-3.00
2022-12-14T06:03:56.819Z,-3.00
2022-12-14T06:06:23.587Z,-2.90
2022-12-14T06:08:50.578Z,-2.90
2022-12-14T06:11:23.103Z,-2.90
2022-12-14T06:13:50.034Z,-2.90
2022-12-14T06:16:19.827Z,-2.90
2022-12-14T06:18:52.144Z,-2.90
2022-12-14T06:21:23.981Z,-2.80
2022-12-14T06:23:50.653Z,-2.80
2022-12-14T06:26:18.178Z,-2.80
2022-12-14T06:28:45.449Z,-2.80
2022-12-14T06:31:26.914Z,-2.80
2022-12-14T06:33:54.766Z,-2.80
2022-12-14T06:36:33.499Z,-2.70
2022-12-14T06:39:05.703Z,-2.70
2022-12-14T06:41:32.801Z,-2.80
2022-12-14T06:44:11.218Z,-2.80
2022-12-14T06:46:38.106Z,-2.70
2022-12-14T06:49:06.193Z,-2.70
2022-12-14T06:51:38.224Z,-2.70
2022-12-14T06:54:04.988Z,-2.70
2022-12-14T06:56:31.668Z,-2.70
2022-12-14T06:58:59.488Z,-2.70
2022-12-14T07:01:26.352Z,-2.70
2022-12-14T07:03:57.952Z,-2.70
2022-12-14T07:06:29.160Z,-2.70
2022-12-14T07:08:57.229Z,-2.70
2022-12-14T07:11:28.183Z,-2.70
2022-12-14T07:13:55.480Z,-2.70
2022-12-14T07:16:25.672Z,-2.70
2022-12-14T07:18:55.896Z,-2.60
2022-12-14T07:21:22.977Z,-2.60
2022-12-14T07:23:52.307Z,-2.60
2022-12-14T07:26:25.411Z,-2.60
2022-12-14T07:28:53.001Z,-2.60
2022-12-14T07:31:23.262Z,-2.60
2022-12-14T07:33:53.426Z,-2.60
2022-12-14T07:36:21.552Z,-2.60
2022-12-14T07:38:50.188Z,-2.60
2022-12-14T07:41:30.648Z,-2.50
2022-12-14T07:43:59.775Z,-2.50
2022-12-14T07:46:28.866Z,-2.50
2022-12-14T07:48:57.621Z,-2.50
2022-12-14T07:51:28.486Z,-2.50
2022-12-14T07:53:55.491Z,-2.50
2022-12-14T07:56:25.223Z,-2.50
2022-12-14T07:58:54.045Z,-2.50
2022-12-14T08:01:29.798Z,-2.50
2022-12-14T08:03:57.923Z,-2.50
2022-12-14T08:06:26.761Z,-2.50
2022-12-14T08:08:57.004Z,-2.40
2022-12-14T08:11:25.153Z,-2.40
2022-12-14T08:14:00.206Z,-2.40
2022-12-14T08:16:27.977Z,-2.40
2022-12-14T08:18:56.748Z,-2.40
2022-12-14T08:21:27.103Z,-2.40
2022-12-14T08:23:55.299Z,-2.40
2022-12-14T08:26:24.054Z,-2.40
2022-12-14T08:28:51.548Z,-2.30
2022-12-14T08:31:21.091Z,-2.30
2022-12-14T08:33:48.468Z,-2.20
2022-12-14T08:36:20.684Z,-2.20
2022-12-14T08:38:53.432Z,-2.10
2022-12-14T08:41:20.485Z,-1.90
2022-12-14T08:43:50.863Z,-1.90
2022-12-14T08:46:18.085Z,-2.00
2022-12-14T08:48:44.777Z,-2.00
2022-12-14T08:51:12.638Z,-2.00
2022-12-14T08:53:40.564Z,-2.00
2022-12-14T08:56:10.606Z,-2.10
2022-12-14T08:58:40.751Z,-2.10
2022-12-14T09:01:15.807Z,-2.10
2022-12-14T09:03:47.364Z,-2.20
2022-12-14T09:06:18.196Z,-2.20
2022-12-14T09:08:49.793Z,-2.30
2022-12-14T09:11:19.441Z,-2.20
2022-12-14T09:13:47.718Z,-2.30
2022-12-14T09:16:17.180Z,-2.30
2022-12-14T09:18:45.639Z,-2.30
2022-12-14T09:21:12.631Z,-2.30
2022-12-14T09:23:42.139Z,-2.20
2022-12-14T09:26:13.070Z,-2.00
2022-12-14T09:28:41.833Z,-1.90
2022-12-14T09:31:11.982Z,-1.90
2022-12-14T09:33:39.136Z,-1.90
2022-12-14T09:36:12.920Z,-1.90
2022-12-14T09:38:43.124Z,-1.80
2022-12-14T09:41:27.455Z,-1.70
2022-12-14T09:44:16.247Z,-1.70
2022-12-14T09:47:49.061Z,-1.70
2022-12-14T09:50:21.518Z,-1.70
2022-12-14T09:52:54.422Z,-1.70
2022-12-14T09:55:29.035Z,-1.50
2022-12-14T09:58:01.219Z,-1.60
2022-12-14T10:00:39.029Z,-1.70
2022-12-14T10:03:55.531Z,-1.70
2022-12-14T10:06:39.637Z,-1.70
2022-12-14T10:09:25.184Z,-1.70
2022-12-14T10:12:18.106Z,-1.70
2022-12-14T10:15:25.124Z,-1.60
2022-12-14T10:18:17.545Z,-1.50
2022-12-14T10:21:18.624Z,-1.30
2022-12-14T10:24:06.114Z,-1.10
2022-12-14T10:26:40.277Z,-0.90
2022-12-14T10:29:37.332Z,-0.80
2022-12-14T10:32:10.811Z,-0.80
2022-12-14T10:34:40.997Z,-0.80
2022-12-14T10:37:30.708Z,-0.90
2022-12-14T10:40:22.109Z,-1.00
2022-12-14T10:43:19.021Z,-1.00
2022-12-14T10:46:13.777Z,-1.10
2022-12-14T10:49:12.209Z,-1.10
2022-12-14T10:51:50.695Z,-1.20
2022-12-14T10:54:30.112Z,-1.20
2022-12-14T10:56:59.544Z,-1.30
2022-12-14T10:59:44.716Z,-1.40
2022-12-14T11:02:27.519Z,-1.50
2022-12-14T11:04:58.140Z,-1.50
2022-12-14T11:07:33.045Z,-1.40
2022-12-14T11:10:31.121Z,-1.60
2022-12-14T11:13:12.727Z,-1.60
2022-12-14T11:15:45.491Z,-1.60
2022-12-14T11:18:14.803Z,-1.60
2022-12-14T11:21:02.437Z,-1.50
2022-12-14T11:23:38.648Z,-1.40
2022-12-14T11:26:11.293Z,-1.20
2022-12-14T11:29:02.621Z,-1.10
2022-12-14T11:31:34.347Z,-1.10
2022-12-14T11:34:03.451Z,-1.10
2022-12-14T11:36:30.068Z,-1.10
2022-12-14T11:39:03.460Z,-1.20
2022-12-14T11:41:38.942Z,-1.20
2022-12-14T11:44:34.363Z,-1.20
2022-12-14T11:47:02.238Z,-1.40
2022-12-14T11:49:34.975Z,-1.30
2022-12-14T11:52:09.617Z,-1.50
2022-12-14T11:54:49.997Z,-1.50
2022-12-14T11:57:21.832Z,-1.50
2022-12-14T11:59:53.482Z,-1.40
2022-12-14T12:02:46.815Z,-1.40
2022-12-14T12:05:23.108Z,-1.30
2022-12-14T12:07:49.740Z,-1.20
2022-12-14T12:10:25.860Z,-1.10
2022-12-14T12:12:57.546Z,-1.00
2022-12-14T12:15:36.925Z,-0.90
2022-12-14T12:18:13.172Z,-1.00
2022-12-14T12:21:09.804Z,-0.80
2022-12-14T12:23:46.181Z,-0.50
2022-12-14T12:26:28.988Z,-0.10
2022-12-14T12:29:13.593Z,0.20
2022-12-14T12:31:52.308Z,0.30
2022-12-14T12:34:45.930Z,0.40
2022-12-14T12:37:26.321Z,0.40
2022-12-14T12:40:00.674Z,0.50
2022-12-14T12:43:05.675Z,0.60
2022-12-14T12:45:47.651Z,0.60
2022-12-14T12:48:43.454Z,0.50
2022-12-14T12:51:27.053Z,0.40
2022-12-14T12:54:06.369Z,0.60
2022-12-14T12:56:49.420Z,0.40
2022-12-14T12:59:37.912Z,0.10
2022-12-14T13:02:33.307Z,-0.10
2022-12-14T13:05:22.304Z,-0.30
2022-12-14T13:08:08.336Z,-0.40
2022-12-14T13:10:55.768Z,-0.60
2022-12-14T13:13:30.711Z,-0.70
2022-12-14T13:16:23.017Z,-0.70
2022-12-14T13:19:08.708Z,-0.70
2022-12-14T13:21:50.026Z,-0.70
2022-12-14T13:24:20.496Z,-0.70
2022-12-14T13:27:12.312Z,-0.60
2022-12-14T13:30:04.912Z,-0.60
2022-12-14T13:32:41.066Z,-0.70
2022-12-14T13:35:28.276Z,-0.60
2022-12-14T13:38:10.252Z,-0.60
2022-12-14T13:40:46.481Z,-0.80
2022-12-14T13:43:41.523Z,-0.80
2022-12-14T13:46:21.197Z,-0.80
2022-12-14T13:48:50.916Z,-1.00
2022-12-14T13:51:41.334Z,-0.90
2022-12-14T13:54:20.510Z,-1.00
2022-12-14T13:56:47.289Z,-1.00
2022-12-14T13:59:35.377Z,-1.00
2022-12-14T14:02:03.866Z,-1.10
2022-12-14T14:04:33.477Z,-1.20
2022-12-14T14:07:24.057Z,-1.10
2022-12-14T14:10:02.094Z,-1.10
2022-12-14T14:12:40.079Z,-1.10
2022-12-14T14:15:29.556Z,-1.10
2022-12-14T14:18:13.762Z,-1.20
2022-12-14T14:20:45.155Z,-1.20
2022-12-14T14:23:14.626Z,-1.20
2022-12-14T14:25:51.822Z,-1.20
2022-12-14T14:28:23.263Z,-1.30
2022-12-14T14:30:54.128Z,-1.30
2022-12-14T14:33:45.473Z,-1.30
2022-12-14T14:36:36.028Z,-1.40
2022-12-14T14:39:24.600Z,-1.40
2022-12-14T14:42:00.533Z,-1.40
2022-12-14T14:44:50.261Z,-1.60
2022-12-14T14:47:32.422Z,-1.60
2022-12-14T14:50:24.121Z,-1.70
2022-12-14T14:53:28.078Z,-1.90
2022-12-14T14:56:00.901Z,-2.00
2022-12-14T14:58:33.985Z,-2.00
2022-12-14T15:01:12.112Z,-2.00
2022-12-14T15:04:21.559Z,-2.10
2022-12-14T15:06:54.118Z,-2.10
2022-12-14T15:09:33.947Z,-2.20
2022-12-14T15:12:21.995Z,-2.30
2022-12-14T15:14:54.299Z,-2.30
2022-12-14T15:17:23.102Z,-2.40
2022-12-14T15:19:57.991Z,-2.50
2022-12-14T15:22:30.604Z,-2.50
2022-12-14T15:25:00.678Z,-2.50
2022-12-14T15:27:39.223Z,-2.50
2022-12-14T15:30:11.658Z,-2.60
2022-12-14T15:33:05.016Z,-2.80
2022-12-14T15:35:35.144Z,-3.00
2022-12-14T15:38:04.720Z,-3.10
2022-12-14T15:40:31.952Z,-3.20
2022-12-14T15:43:01.749Z,-3.30
2022-12-14T15:45:32.074Z,-3.50
2022-12-14T15:48:30.892Z,-3.70
2022-12-14T15:51:03.895Z,-4.00
2022-12-14T15:53:33.023Z,-4.10
2022-12-14T15:56:08.280Z,-4.30
2022-12-14T15:58:40.239Z,-4.40
2022-12-14T16:01:17.391Z,-4.50
2022-12-14T16:03:47.808Z,-4.60
2022-12-14T16:06:17.101Z,-4.60
2022-12-14T16:09:16.917Z,-4.60
2022-12-14T16:11:46.892Z,-4.60
2022-12-14T16:14:35.858Z,-4.50
2022-12-14T16:17:04.439Z,-4.50
2022-12-14T16:19:57.505Z,-4.50
2022-12-14T16:22:24.408Z,-4.60
2022-12-14T16:25:09.883Z,-4.60
2022-12-14T16:27:40.703Z,-4.70
2022-12-14T16:30:18.472Z,-4.80
2022-12-14T16:32:50.021Z,-4.90
2022-12-14T16:35:22.984Z,-5.00
2022-12-14T16:38:04.402Z,-5.10
2022-12-14T16:40:40.488Z,-5.00
2022-12-14T16:43:32.477Z,-5.10
2022-12-14T16:46:08.391Z,-5.20
2022-12-14T16:48:41.293Z,-5.30
2022-12-14T16:51:58.075Z,-5.40
2022-12-14T16:54:26.426Z,-5.50
2022-12-14T16:57:05.380Z,-5.60
2022-12-14T16:59:42.967Z,-5.70
2022-12-14T17:02:30.671Z,-5.80
2022-12-14T17:05:00.205Z,-6.00
2022-12-14T17:07:32.281Z,-6.00
2022-12-14T17:09:59.463Z,-6.00
2022-12-14T17:12:27.728Z,-6.10
2022-12-14T17:14:55.022Z,-6.20
2022-12-14T17:17:33.499Z,-6.30
2022-12-14T17:20:01.158Z,-6.30
2022-12-14T17:22:35.223Z,-6.20
2022-12-14T17:25:02.481Z,-6.10
2022-12-14T17:27:29.690Z,-6.00
2022-12-14T17:29:57.212Z,-6.00
2022-12-14T17:32:30.263Z,-6.00
2022-12-14T17:35:01.403Z,-6.00
2022-12-14T17:37:34.067Z,-5.90
2022-12-14T17:40:05.851Z,-6.00
2022-12-14T17:42:34.976Z,-6.00
2022-12-14T17:45:01.816Z,-6.00
2022-12-14T17:47:28.418Z,-6.10
2022-12-14T17:49:55.546Z,-6.20
2022-12-14T17:52:28.461Z,-6.20
2022-12-14T17:54:55.171Z,-6.00
2022-12-14T17:57:23.571Z,-5.90
2022-12-14T18:00:09.387Z,-5.90
2022-12-14T18:02:37.073Z,-5.90
2022-12-14T18:05:04.148Z,-5.90
2022-12-14T18:07:34.076Z,-5.80
2022-12-14T18:10:00.697Z,-5.80
2022-12-14T18:12:27.327Z,-5.90
2022-12-14T18:14:54.432Z,-6.00
2022-12-14T18:17:21.214Z,-6.10
2022-12-14T18:19:49.505Z,-6.10
2022-12-14T18:22:16.872Z,-6.20
2022-12-14T18:24:43.622Z,-6.20
2022-12-14T18:27:13.418Z,-6.20
2022-12-14T18:29:40.264Z,-6.20
2022-12-14T18:32:07.003Z,-6.20
2022-12-14T18:34:33.668Z,-6.30
2022-12-14T18:37:00.266Z,-6.50
2022-12-14T18:39:26.992Z,-6.50
2022-12-14T18:41:53.670Z,-6.50
2022-12-14T18:44:20.436Z,-6.60
2022-12-14T18:46:49.668Z,-6.70
2022-12-14T18:49:16.444Z,-6.70
2022-12-14T18:51:43.765Z,-6.70
2022-12-14T18:54:11.510Z,-6.70
2022-12-14T18:56:41.286Z,-6.60
2022-12-14T18:59:07.952Z,-6.70
2022-12-14T19:01:34.803Z,-6.70
2022-12-14T19:04:05.739Z,-6.80
2022-12-14T19:06:43.987Z,-6.80
2022-12-14T19:09:12.822Z,-6.90
2022-12-14T19:11:46.244Z,-7.00
2022-12-14T19:14:13.064Z,-7.10
2022-12-14T19:16:39.851Z,-7.20
2022-12-14T19:19:06.657Z,-7.30
2022-12-14T19:21:33.345Z,-7.30
2022-12-14T19:24:00.243Z,-7.30
2022-12-14T19:26:28.344Z,-7.40
2022-12-14T19:28:55.328Z,-7.40
2022-12-14T19:31:22.502Z,-7.50
2022-12-14T19:33:49.289Z,-7.60
2022-12-14T19:36:15.963Z,-7.60
2022-12-14T19:38:42.627Z,-7.70
2022-12-14T19:41:12.066Z,-7.70
2022-12-14T19:43:41.864Z,-7.60
2022-12-14T19:46:10.995Z,-7.60
2022-12-14T19:48:44.190Z,-7.60
2022-12-14T19:51:12.866Z,-7.60
2022-12-14T19:53:42.579Z,-7.50
2022-12-14T19:56:09.937Z,-7.50
2022-12-14T19:58:36.780Z,-7.40
2022-12-14T20:01:09.026Z,-7.40
2022-12-14T20:03:36.779Z,-7.30
2022-12-14T20:06:05.423Z,-7.30
2022-12-14T20:08:34.003Z,-7.30
2022-12-14T20:11:08.871Z,-7.40
2022-12-14T20:13:36.129Z,-7.40
2022-12-14T20:16:03.069Z,-7.40
2022-12-14T20:18:31.847Z,-7.40
2022-12-14T20:21:08.713Z,-7.50
2022-12-14T20:23:37.325Z,-7.50
2022-12-14T20:26:06.781Z,-7.50
2022-12-14T20:28:33.680Z,-7.50
2022-12-14T20:31:01.260Z,-7.50
2022-12-14T20:33:30.554Z,-7.50
2022-12-14T20:35:58.008Z,-7.50
2022-12-14T20:38:25.219Z,-7.50
2022-12-14T20:40:52.248Z,-7.50
2022-12-14T20:43:19.583Z,-7.40
2022-12-14T20:45:46.635Z,-7.40
2022-12-14T20:48:13.749Z,-7.40
2022-12-14T20:50:43.079Z,-7.50
2022-12-14T20:53:09.742Z,-7.50
2022-12-14T20:55:36.486Z,-7.50
2022-12-14T20:58:03.281Z,-7.50
2022-12-14T21:00:30.339Z,-7.50
2022-12-14T21:02:57.267Z,-7.50
2022-12-14T21:05:24.158Z,-7.30
2022-12-14T21:07:51.961Z,-7.20
2022-12-14T21:10:19.020Z,-7.20
2022-12-14T21:12:48.444Z,-7.30
2022-12-14T21:15:19.291Z,-7.30
2022-12-14T21:17:46.097Z,-7.50
2022-12-14T21:20:12.738Z,-7.50
2022-12-14T21:22:39.486Z,-7.60
2022-12-14T21:25:07.627Z,-7.50
2022-12-14T21:27:38.366Z,-7.40
2022-12-14T21:30:10.842Z,-7.30
2022-12-14T21:32:38.081Z,-7.20
2022-12-14T21:35:05.668Z,-7.10
2022-12-14T21:37:32.293Z,-7.10
2022-12-14T21:39:59.150Z,-7.10
2022-12-14T21:42:26.182Z,-7.00
2022-12-14T21:44:53.873Z,-7.00
2022-12-14T21:47:26.032Z,-7.00
2022-12-14T21:49:53.290Z,-6.90
2022-12-14T21:52:24.229Z,-6.90
2022-12-14T21:54:51.044Z,-6.90
2022-12-14T21:57:39.829Z,-6.80
2022-12-14T22:00:08.490Z,-6.80
2022-12-14T22:02:35.622Z,-6.70
2022-12-14T22:05:02.471Z,-6.60
2022-12-14T22:07:31.819Z,-6.60
2022-12-14T22:09:58.770Z,-6.50
2022-12-14T22:12:25.971Z,-6.50
2022-12-14T22:14:58.643Z,-6.40
2022-12-14T22:17:25.362Z,-6.40
2022-12-14T22:19:54.211Z,-6.40
2022-12-14T22:22:21.217Z,-6.30
2022-12-14T22:24:49.669Z,-6.30
2022-12-14T22:27:16.740Z,-6.30
2022-12-14T22:29:45.615Z,-6.30
2022-12-14T22:32:18.351Z,-6.30
2022-12-14T22:34:45.385Z,-6.30
2022-12-14T22:37:17.897Z,-6.30
2022-12-14T22:39:44.562Z,-6.30
2022-12-14T22:42:16.652Z,-6.30
2022-12-14T22:44:43.429Z,-6.30
2022-12-14T22:47:10.095Z,-6.30
2022-12-14T22:49:37.154Z,-6.30
2022-12-14T22:52:06.011Z,-6.30
2022-12-14T22:54:32.674Z,-6.30
2022-12-14T22:57:03.748Z,-6.30
2022-12-14T22:59:43.666Z,-6.30
2022-12-14T23:02:10.809Z,-6.30
2022-12-14T23:04:38.704Z,-6.30
2022-12-14T23:07:06.356Z,-6.30
2022-12-14T23:09:51.903Z,-6.30
2022-12-14T23:12:37.411Z,-6.30
2022-12-14T23:15:26.026Z,-6.30
2022-12-14T23:18:23.453Z,-6.20
2022-12-14T23:21:09.102Z,-6.10
2022-12-14T23:24:00.162Z,-6.10
2022-12-14T23:26:48.837Z,-6.00
2022-12-14T23:29:34.191Z,-5.90
2022-12-14T23:32:19.613Z,-5.80
2022-12-14T23:35:05.146Z,-5.80
2022-12-14T23:37:50.628Z,-5.70
2022-12-14T23:40:36.322Z,-5.60
2022-12-14T23:43:30.247Z,-5.50
2022-12-14T23:46:15.957Z,-5.50
2022-12-14T23:49:01.394Z,-5.50
2022-12-14T23:51:47.391Z,-5.50
2022-12-14T23:54:32.702Z,-5.50
2022-12-14T23:57:18.167Z,-5.50
